createdAt,value
2023-03-16T00:01:11.229Z,50.25
2023-03-16T00:03:40.641Z,48.38
2023-03-16T00:06:10.076Z,50.13
2023-03-16T00:08:40.191Z,49.13
2023-03-16T00:11:09.401Z,47.63
2023-03-16T00:13:38.629Z,47.08
2023-03-16T00:16:08.659Z,47.38
2023-03-16T00:18:42.190Z,44.53
2023-03-16T00:21:14.252Z,45.97
2023-03-16T00:23:43.610Z,49.05
2023-03-16T00:26:14.041Z,46.35
2023-03-16T00:28:43.853Z,47.92
2023-03-16T00:31:13.903Z,47.83
2023-03-16T00:33:44.368Z,45.95
2023-03-16T00:36:14.624Z,45.10
2023-03-16T00:38:49.223Z,44.10
2023-03-16T00:41:18.722Z,41.60
2023-03-16T00:43:49.819Z,40.28
2023-03-16T00:46:19.765Z,39.88
2023-03-16T00:48:49.748Z,41.13
2023-03-16T00:51:21.085Z,39.33
2023-03-16T00:53:51.065Z,40.78
2023-03-16T00:56:20.857Z,40.10
2023-03-16T00:58:50.164Z,37.92
2023-03-16T01:01:22.120Z,38.70
2023-03-16T01:03:52.184Z,38.30
2023-03-16T01:06:24.182Z,38.35
2023-03-16T01:08:54.550Z,39.90
2023-03-16T01:11:25.052Z,40.33
2023-03-16T01:13:55.399Z,39.70
2023-03-16T01:16:24.733Z,39.00
2023-03-16T01:18:54.656Z,38.75
2023-03-16T01:21:24.773Z,39.17
2023-03-16T01:23:54.815Z,40.08
2023-03-16T01:26:26.181Z,37.60
2023-03-16T01:28:55.939Z,37.63
2023-03-16T01:31:25.254Z,38.97
2023-03-16T01:33:54.535Z,37.80
2023-03-16T01:36:24.426Z,38.22
2023-03-16T01:38:53.820Z,36.47
2023-03-16T01:41:23.217Z,35.90
2023-03-16T01:43:52.960Z,34.83
2023-03-16T01:46:31.122Z,34.22
2023-03-16T01:49:13.540Z,34.13
2023-03-16T01:51:53.928Z,33.97
2023-03-16T01:54:31.347Z,34.35
2023-03-16T01:57:23.400Z,34.75
2023-03-16T02:00:11.514Z,33.17
2023-03-16T02:02:44.652Z,32.83
2023-03-16T02:05:53.766Z,32.78
2023-03-16T02:08:30.206Z,32.70
2023-03-16T02:11:01.849Z,31.15
2023-03-16T02:13:33.983Z,31.55
2023-03-16T02:16:04.457Z,30.45
2023-03-16T02:18:34.983Z,29.08
2023-03-16T02:21:58.062Z,30.45
2023-03-16T02:24:30.758Z,28.88
2023-03-16T02:27:47.285Z,27.42
2023-03-16T02:30:19.582Z,28.05
2023-03-16T02:32:54.730Z,28.40
2023-03-16T02:35:24.933Z,26.65
2023-03-16T02:37:57.087Z,26.58
2023-03-16T02:40:39.636Z,26.98
2023-03-16T02:43:25.760Z,26.92
2023-03-16T02:46:09.601Z,25.65
2023-03-16T02:48:48.486Z,25.80
2023-03-16T02:51:19.305Z,26.33
2023-03-16T02:53:48.675Z,26.83
2023-03-16T02:56:18.296Z,26.02
2023-03-16T02:58:47.551Z,27.25
2023-03-16T03:01:26.120Z,24.88
2023-03-16T03:03:59.281Z,24.88
2023-03-16T03:06:43.875Z,25.85
2023-03-16T03:09:20.167Z,24.92
2023-03-16T03:11:57.743Z,23.73
2023-03-16T03:14:34.312Z,24.73
2023-03-16T03:17:06.377Z,24.30
2023-03-16T03:19:40.333Z,23.17
2023-03-16T03:22:30.812Z,23.42
2023-03-16T03:24:59.990Z,23.95
2023-03-16T03:27:33.228Z,22.33
2023-03-16T03:30:02.586Z,22.20
2023-03-16T03:32:32.239Z,22.88
2023-03-16T03:35:02.020Z,22.63
2023-03-16T03:37:31.227Z,21.95
2023-03-16T03:40:00.326Z,21.33
2023-03-16T03:42:29.495Z,22.55
2023-03-16T03:44:58.623Z,23.55
2023-03-16T03:47:27.776Z,21.23
2023-03-16T03:49:56.964Z,21.92
2023-03-16T03:52:26.198Z,21.13
2023-03-16T03:54:55.320Z,21.90
2023-03-16T03:57:24.680Z,22.95
2023-03-16T03:59:53.844Z,20.58
2023-03-16T04:02:23.177Z,20.48
2023-03-16T04:04:52.477Z,21.33
2023-03-16T04:07:21.869Z,20.35
2023-03-16T04:09:50.983Z,21.45
2023-03-16T04:12:20.176Z,21.38
2023-03-16T04:14:49.503Z,20.50
2023-03-16T04:17:18.869Z,20.63
2023-03-16T04:19:48.596Z,23.17
2023-03-16T04:22:18.199Z,21.48
2023-03-16T04:24:47.366Z,21.70
2023-03-16T04:27:16.438Z,21.40
2023-03-16T04:29:45.571Z,23.15
2023-03-16T04:32:14.882Z,21.95
2023-03-16T04:34:44.794Z,21.67
2023-03-16T04:37:14.359Z,20.33
2023-03-16T04:39:43.409Z,21.15
2023-03-16T04:42:13.402Z,20.30
2023-03-16T04:44:45.109Z,19.70
2023-03-16T04:47:16.378Z,19.90
2023-03-16T04:49:45.921Z,20.13
2023-03-16T04:52:15.072Z,20.33
2023-03-16T04:54:44.652Z,19.90
2023-03-16T04:57:13.892Z,19.85
2023-03-16T04:59:43.050Z,20.40
2023-03-16T05:02:12.595Z,19.08
2023-03-16T05:04:41.855Z,20.10
2023-03-16T05:07:11.036Z,19.98
2023-03-16T05:09:42.770Z,19.20
2023-03-16T05:12:12.408Z,19.20
2023-03-16T05:14:41.562Z,19.48
2023-03-16T05:17:10.898Z,19.88
2023-03-16T05:19:40.031Z,19.38
2023-03-16T05:22:09.400Z,20.25
2023-03-16T05:24:39.538Z,18.90
2023-03-16T05:27:08.775Z,19.77
2023-03-16T05:29:38.011Z,19.33
2023-03-16T05:32:07.685Z,19.17
2023-03-16T05:34:36.800Z,20.15
2023-03-16T05:37:05.983Z,20.73
2023-03-16T05:39:35.399Z,20.48
2023-03-16T05:42:05.990Z,20.05
2023-03-16T05:44:35.738Z,19.48
2023-03-16T05:47:05.134Z,19.67
2023-03-16T05:49:34.363Z,21.08
2023-03-16T05:52:03.651Z,19.92
2023-03-16T05:54:32.799Z,18.92
2023-03-16T05:57:01.978Z,18.83
2023-03-16T05:59:31.223Z,18.13
2023-03-16T06:02:00.388Z,19.40
2023-03-16T06:04:29.621Z,20.55
2023-03-16T06:06:59.022Z,18.80
2023-03-16T06:09:29.212Z,20.10
2023-03-16T06:11:58.400Z,21.00
2023-03-16T06:14:27.565Z,20.05
2023-03-16T06:16:56.644Z,19.02
2023-03-16T06:19:25.772Z,19.33
2023-03-16T06:21:54.994Z,20.02
2023-03-16T06:24:24.148Z,20.67
2023-03-16T06:26:54.036Z,19.40
2023-03-16T06:29:23.221Z,21.88
2023-03-16T06:31:53.498Z,20.65
2023-03-16T06:34:23.604Z,19.75
2023-03-16T06:36:52.675Z,20.00
2023-03-16T06:39:22.453Z,19.90
2023-03-16T06:41:51.639Z,20.30
2023-03-16T06:44:20.772Z,20.38
2023-03-16T06:46:50.356Z,21.38
2023-03-16T06:49:19.498Z,20.42
2023-03-16T06:51:48.611Z,20.20
2023-03-16T06:54:17.989Z,19.90
2023-03-16T06:56:47.163Z,19.02
2023-03-16T06:59:16.284Z,19.73
2023-03-16T07:01:46.123Z,20.58
2023-03-16T07:04:15.394Z,20.30
2023-03-16T07:06:44.658Z,19.58
2023-03-16T07:09:14.595Z,19.88
2023-03-16T07:11:44.351Z,20.23
2023-03-16T07:14:13.444Z,19.65
2023-03-16T07:16:42.691Z,20.65
2023-03-16T07:19:12.528Z,20.52
2023-03-16T07:21:43.012Z,21.10
2023-03-16T07:24:13.873Z,19.95
2023-03-16T07:26:44.147Z,21.23
2023-03-16T07:29:14.906Z,20.60
2023-03-16T07:31:44.300Z,19.70
2023-03-16T07:34:14.059Z,19.83
2023-03-16T07:36:43.141Z,19.15
2023-03-16T07:39:15.274Z,20.60
2023-03-16T07:41:44.993Z,21.25
2023-03-16T07:44:15.188Z,22.17
2023-03-16T07:46:44.784Z,20.80
2023-03-16T07:49:14.358Z,23.55
2023-03-16T07:51:43.527Z,20.88
2023-03-16T07:54:12.717Z,19.63
2023-03-16T07:56:49.241Z,19.73
2023-03-16T07:59:20.859Z,20.13
2023-03-16T08:01:50.256Z,20.65
2023-03-16T08:04:19.569Z,20.80
2023-03-16T08:06:48.894Z,22.20
2023-03-16T08:09:18.336Z,20.30
2023-03-16T08:11:47.474Z,19.77
2023-03-16T08:14:16.582Z,20.10
2023-03-16T08:16:45.701Z,18.92
2023-03-16T08:19:14.927Z,19.50
2023-03-16T08:22:00.393Z,20.25
2023-03-16T08:24:32.069Z,19.77
2023-03-16T08:27:02.120Z,21.08
2023-03-16T08:29:31.345Z,20.88
2023-03-16T08:32:01.061Z,19.83
2023-03-16T08:34:31.178Z,20.40
2023-03-16T08:37:01.275Z,18.90
2023-03-16T08:39:31.103Z,19.88
2023-03-16T08:42:00.320Z,19.10
2023-03-16T08:44:29.526Z,19.33
2023-03-16T08:46:58.684Z,20.25
2023-03-16T08:49:29.979Z,19.35
2023-03-16T08:51:59.194Z,21.65
2023-03-16T08:54:28.355Z,20.23
2023-03-16T08:56:57.641Z,19.92
2023-03-16T08:59:30.092Z,20.30
2023-03-16T09:02:01.425Z,19.17
2023-03-16T09:04:31.462Z,19.23
2023-03-16T09:07:08.691Z,19.25
2023-03-16T09:09:39.117Z,20.55
2023-03-16T09:12:09.484Z,20.65
2023-03-16T09:14:39.408Z,22.02
2023-03-16T09:17:09.525Z,19.92
2023-03-16T09:19:50.619Z,20.45
2023-03-16T09:22:22.179Z,21.60
2023-03-16T09:24:52.186Z,20.08
2023-03-16T09:27:21.777Z,20.63
2023-03-16T09:29:51.618Z,20.17
2023-03-16T09:32:21.671Z,19.88
2023-03-16T09:34:51.587Z,20.95
2023-03-16T09:37:20.877Z,20.63
2023-03-16T09:39:51.830Z,19.92
2023-03-16T09:43:15.416Z,21.10
2023-03-16T09:46:12.929Z,20.50
2023-03-16T09:48:43.239Z,20.48
2023-03-16T09:51:39.655Z,19.90
2023-03-16T09:54:35.610Z,20.55
2023-03-16T09:57:12.648Z,19.77
2023-03-16T09:59:41.877Z,20.38
2023-03-16T10:02:42.081Z,20.65
2023-03-16T10:05:18.559Z,20.70
2023-03-16T10:08:17.982Z,20.40
2023-03-16T10:11:16.292Z,20.13
2023-03-16T10:14:21.699Z,20.13
2023-03-16T10:17:13.079Z,20.60
2023-03-16T10:19:55.784Z,19.00
2023-03-16T10:22:35.819Z,19.00
2023-03-16T10:25:32.309Z,20.83
2023-03-16T10:28:01.913Z,21.33
2023-03-16T10:30:38.342Z,22.02
2023-03-16T10:33:35.253Z,24.08
2023-03-16T10:36:16.612Z,24.00
2023-03-16T10:38:56.376Z,23.73
2023-03-16T10:41:34.105Z,22.88
2023-03-16T10:44:14.482Z,21.83
2023-03-16T10:46:52.069Z,21.92
2023-03-16T10:49:40.445Z,22.88
2023-03-16T10:52:47.861Z,22.02
2023-03-16T10:55:33.584Z,22.73
2023-03-16T10:58:03.134Z,22.25
2023-03-16T11:00:39.497Z,23.52
2023-03-16T11:03:29.894Z,23.23
2023-03-16T11:06:05.370Z,22.58
2023-03-16T11:08:42.385Z,24.13
2023-03-16T11:11:33.498Z,24.48
2023-03-16T11:14:05.788Z,25.60
2023-03-16T11:17:04.148Z,24.50
2023-03-16T11:19:52.619Z,25.33
2023-03-16T11:22:31.182Z,24.55
2023-03-16T11:25:36.431Z,25.85
2023-03-16T11:28:45.136Z,25.15
2023-03-16T11:31:41.581Z,25.13
2023-03-16T11:34:29.268Z,25.33
2023-03-16T11:37:52.684Z,25.23
2023-03-16T11:40:59.123Z,24.52
2023-03-16T11:43:53.793Z,25.92
2023-03-16T11:46:31.797Z,25.75
2023-03-16T11:49:38.015Z,26.13
2023-03-16T11:52:47.566Z,29.85
2023-03-16T11:55:31.632Z,27.45
2023-03-16T11:58:24.479Z,29.90
2023-03-16T12:08:54.940Z,32.63
2023-03-16T12:11:48.809Z,33.42
2023-03-16T12:14:50.003Z,32.80
2023-03-16T12:17:45.074Z,31.30
2023-03-16T12:20:35.778Z,32.15
2023-03-16T12:23:33.230Z,33.30
2023-03-16T12:35:30.044Z,34.40
2023-03-16T12:38:36.472Z,33.83
2023-03-16T12:41:50.565Z,34.47
2023-03-16T12:45:02.584Z,35.33
2023-03-16T12:51:11.778Z,33.08
2023-03-16T12:54:07.770Z,39.35
2023-03-16T12:56:58.096Z,33.30
2023-03-16T12:59:47.028Z,34.45
2023-03-16T13:02:33.655Z,46.88
2023-03-16T13:05:22.594Z,37.67
2023-03-16T13:14:14.172Z,38.15
2023-03-16T13:16:53.352Z,38.05
2023-03-16T13:19:42.974Z,37.20
2023-03-16T13:22:48.947Z,39.03
2023-03-16T13:25:45.663Z,37.55
2023-03-16T13:28:28.230Z,35.92
2023-03-16T13:30:58.038Z,35.30
2023-03-16T13:33:32.614Z,35.83
2023-03-16T13:36:03.376Z,38.17
2023-03-16T13:38:32.829Z,36.53
2023-03-16T13:41:16.066Z,34.85
2023-03-16T13:44:02.853Z,36.58
2023-03-16T13:46:32.819Z,36.22
2023-03-16T13:49:09.320Z,38.05
2023-03-16T13:51:50.679Z,36.95
2023-03-16T13:54:33.753Z,35.35
2023-03-16T13:57:10.728Z,38.17
2023-03-16T13:59:44.642Z,35.40
2023-03-16T14:02:26.949Z,37.22
2023-03-16T14:05:14.173Z,39.88
2023-03-16T14:07:46.329Z,36.72
2023-03-16T14:10:18.128Z,37.63
2023-03-16T14:13:12.487Z,35.35
2023-03-16T14:15:42.746Z,36.30
2023-03-16T14:18:23.960Z,38.65
2023-03-16T14:20:57.855Z,39.13
2023-03-16T14:23:38.649Z,38.22
2023-03-16T14:26:16.064Z,38.53
2023-03-16T14:29:28.774Z,36.17
2023-03-16T14:32:08.248Z,37.13
2023-03-16T14:34:43.034Z,38.30
2023-03-16T14:37:14.605Z,38.50
2023-03-16T14:39:44.454Z,38.95
2023-03-16T14:42:32.924Z,37.47
2023-03-16T14:45:10.125Z,36.80
2023-03-16T14:47:49.737Z,36.08
2023-03-16T14:50:31.009Z,37.38
2023-03-16T14:53:00.863Z,38.20
2023-03-16T14:55:31.593Z,38.25
2023-03-16T14:58:01.072Z,39.63
2023-03-16T15:00:36.999Z,37.78
2023-03-16T15:03:18.567Z,37.53
2023-03-16T15:05:58.385Z,41.53
2023-03-16T15:08:34.853Z,42.60
2023-03-16T15:11:07.526Z,38.42
2023-03-16T15:13:43.083Z,38.97
2023-03-16T15:16:15.279Z,38.65
2023-03-16T15:18:45.266Z,37.20
2023-03-16T15:21:18.291Z,38.25
2023-03-16T15:23:48.249Z,37.58
2023-03-16T15:26:25.271Z,37.00
2023-03-16T15:28:55.577Z,37.25
2023-03-16T15:31:25.116Z,40.17
2023-03-16T15:33:54.466Z,38.45
2023-03-16T15:36:25.241Z,37.30
2023-03-16T15:38:56.670Z,37.13
2023-03-16T15:41:32.425Z,37.75
2023-03-16T15:44:14.936Z,37.38
2023-03-16T15:46:50.177Z,37.58
2023-03-16T15:49:19.455Z,37.30
2023-03-16T15:51:48.669Z,39.38
2023-03-16T15:54:18.032Z,38.17
2023-03-16T15:56:54.250Z,38.35
2023-03-16T15:59:27.666Z,38.55
2023-03-16T16:01:57.066Z,37.38
2023-03-16T16:04:27.279Z,40.28
2023-03-16T16:06:57.784Z,40.35
2023-03-16T16:09:28.637Z,39.47
2023-03-16T16:11:58.270Z,38.92
2023-03-16T16:14:29.032Z,40.72
2023-03-16T16:16:58.264Z,39.85
2023-03-16T16:19:29.527Z,38.95
2023-03-16T16:21:58.964Z,41.28
2023-03-16T16:24:28.778Z,41.70
2023-03-16T16:26:58.380Z,39.28
2023-03-16T16:29:34.858Z,40.72
2023-03-16T16:32:04.234Z,39.22
2023-03-16T16:34:34.480Z,40.55
2023-03-16T16:37:04.344Z,38.75
2023-03-16T16:39:33.497Z,40.05
2023-03-16T16:42:02.899Z,40.55
2023-03-16T16:44:35.266Z,39.53
2023-03-16T16:47:18.599Z,38.95
2023-03-16T16:49:47.795Z,40.53
2023-03-16T16:52:21.842Z,39.83
2023-03-16T16:54:50.996Z,41.03
2023-03-16T16:57:21.781Z,41.00
2023-03-16T16:59:51.452Z,40.95
2023-03-16T17:02:44.901Z,41.78
2023-03-16T17:05:32.676Z,39.33
2023-03-16T17:08:05.098Z,37.85
2023-03-16T17:10:35.938Z,38.95
2023-03-16T17:13:07.310Z,41.10
2023-03-16T17:15:38.034Z,40.80
2023-03-16T17:18:15.896Z,41.53
2023-03-16T17:20:45.943Z,41.65
2023-03-16T17:23:35.928Z,41.58
2023-03-16T17:26:28.983Z,41.90
2023-03-16T17:29:07.192Z,39.72
2023-03-16T17:31:42.829Z,41.30
2023-03-16T17:34:29.915Z,39.92
2023-03-16T17:36:59.097Z,40.33
2023-03-16T17:39:31.783Z,41.55
2023-03-16T17:42:14.495Z,40.85
2023-03-16T17:44:49.020Z,40.97
2023-03-16T17:47:28.609Z,38.92
2023-03-16T17:49:58.048Z,41.33
2023-03-16T17:52:30.790Z,40.28
2023-03-16T17:55:00.008Z,41.08
2023-03-16T17:57:35.112Z,40.72
2023-03-16T18:00:10.071Z,42.42
2023-03-16T18:02:56.989Z,40.90
2023-03-16T18:05:36.683Z,40.25
2023-03-16T18:08:23.679Z,39.75
2023-03-16T18:11:04.409Z,40.38
2023-03-16T18:13:41.035Z,40.30
2023-03-16T18:16:16.256Z,39.83
2023-03-16T18:18:47.877Z,40.75
2023-03-16T18:21:25.449Z,40.88
2023-03-16T18:23:55.896Z,39.63
2023-03-16T18:26:25.748Z,40.63
2023-03-16T18:28:54.997Z,40.17
2023-03-16T18:31:29.381Z,41.75
2023-03-16T18:34:03.520Z,42.55
2023-03-16T18:36:39.548Z,42.28
2023-03-16T18:39:19.886Z,44.58
2023-03-16T18:41:52.317Z,42.08
2023-03-16T18:44:31.115Z,43.15
2023-03-16T18:47:05.239Z,43.28
2023-03-16T18:49:42.457Z,39.88
2023-03-16T18:52:25.560Z,40.22
2023-03-16T18:54:56.598Z,40.15
2023-03-16T18:57:29.221Z,40.40
2023-03-16T18:59:58.373Z,42.10
2023-03-16T19:02:42.934Z,40.92
2023-03-16T19:05:23.214Z,40.95
2023-03-16T19:07:54.340Z,41.45
2023-03-16T19:10:39.524Z,41.78
2023-03-16T19:13:22.421Z,43.00
2023-03-16T19:15:54.725Z,42.03
2023-03-16T19:18:27.032Z,44.47
2023-03-16T19:20:57.728Z,42.60
2023-03-16T19:23:37.542Z,42.53
2023-03-16T19:26:07.307Z,43.08
2023-03-16T19:28:40.905Z,44.42
2023-03-16T19:31:27.154Z,46.45
2023-03-16T19:33:57.782Z,44.53
2023-03-16T19:36:33.361Z,44.47
2023-03-16T19:39:02.794Z,43.55
2023-03-16T19:41:36.716Z,42.22
2023-03-16T19:44:23.238Z,43.42
2023-03-16T19:46:53.285Z,43.83
2023-03-16T19:49:28.901Z,44.05
2023-03-16T19:51:58.890Z,40.47
2023-03-16T19:54:34.906Z,40.75
2023-03-16T19:57:15.338Z,42.72
2023-03-16T19:59:49.162Z,43.13
2023-03-16T20:02:48.421Z,43.70
2023-03-16T20:05:26.213Z,43.40
2023-03-16T20:07:59.241Z,43.40
2023-03-16T20:10:33.704Z,45.10
2023-03-16T20:13:03.835Z,45.50
2023-03-16T20:15:35.295Z,44.40
2023-03-16T20:18:05.954Z,43.67
2023-03-16T20:20:36.114Z,44.60
2023-03-16T20:23:19.690Z,43.28
2023-03-16T20:25:50.744Z,43.63
2023-03-16T20:28:51.479Z,44.75
2023-03-16T20:31:32.228Z,42.90
2023-03-16T20:34:02.680Z,44.17
2023-03-16T20:36:33.018Z,45.25
2023-03-16T20:39:07.305Z,44.25
2023-03-16T20:41:38.532Z,44.55
2023-03-16T20:44:14.514Z,44.17
2023-03-16T20:46:53.021Z,44.50
2023-03-16T20:49:27.782Z,41.95
2023-03-16T20:52:00.769Z,43.15
2023-03-16T20:54:30.842Z,42.88
2023-03-16T20:57:02.126Z,42.35
2023-03-16T20:59:31.660Z,43.85
2023-03-16T21:02:03.818Z,40.75
2023-03-16T21:04:34.463Z,41.53
2023-03-16T21:07:09.763Z,41.03
2023-03-16T21:09:42.107Z,42.22
2023-03-16T21:12:35.389Z,42.75
2023-03-16T21:15:17.454Z,42.92
2023-03-16T21:17:48.774Z,44.40
2023-03-16T21:20:23.352Z,43.75
2023-03-16T21:22:53.007Z,43.25
2023-03-16T21:25:32.817Z,42.70
2023-03-16T21:28:06.520Z,42.65
2023-03-16T21:30:50.227Z,42.95
2023-03-16T21:33:39.437Z,42.45
2023-03-16T21:36:24.006Z,45.13
2023-03-16T21:38:55.918Z,44.85
2023-03-16T21:41:25.274Z,45.08
2023-03-16T21:43:58.637Z,46.88
2023-03-16T21:46:32.933Z,44.67
2023-03-16T21:49:03.667Z,46.08
2023-03-16T21:51:34.625Z,45.55
2023-03-16T21:54:05.893Z,45.13
2023-03-16T21:56:37.032Z,44.70
2023-03-16T21:59:06.251Z,46.60
2023-03-16T22:01:54.398Z,42.78
2023-03-16T22:04:29.026Z,44.03
2023-03-16T22:06:58.476Z,44.22
2023-03-16T22:09:40.026Z,44.85
2023-03-16T22:12:15.974Z,45.28
2023-03-16T22:14:45.261Z,43.28
2023-03-16T22:17:23.416Z,44.00
2023-03-16T22:19:53.056Z,42.95
2023-03-16T22:22:22.308Z,44.42
2023-03-16T22:24:51.604Z,43.85
2023-03-16T22:27:27.191Z,44.42
2023-03-16T22:30:01.120Z,45.85
2023-03-16T22:32:31.302Z,44.40
2023-03-16T22:35:04.040Z,45.83
2023-03-16T22:37:33.409Z,45.15
2023-03-16T22:40:04.889Z,45.25
2023-03-16T22:42:41.394Z,45.58
2023-03-16T22:45:28.370Z,45.92
2023-03-16T22:48:00.451Z,45.13
2023-03-16T22:50:35.250Z,46.00
2023-03-16T22:53:09.901Z,45.53
2023-03-16T22:55:41.960Z,45.63
2023-03-16T22:58:30.455Z,44.97
2023-03-16T23:01:31.695Z,42.42
2023-03-16T23:04:03.169Z,43.25
2023-03-16T23:06:35.001Z,41.17
2023-03-16T23:09:06.594Z,39.85
2023-03-16T23:11:40.234Z,41.05
2023-03-16T23:14:21.297Z,39.60
2023-03-16T23:16:57.023Z,41.65
2023-03-16T23:19:37.062Z,39.97
2023-03-16T23:22:08.676Z,41.67
2023-03-16T23:24:38.321Z,51.15
2023-03-16T23:27:20.342Z,42.30
2023-03-16T23:29:50.674Z,39.70
2023-03-16T23:32:20.875Z,41.42
2023-03-16T23:34:49.990Z,44.13
2023-03-16T23:37:19.173Z,43.78
2023-03-16T23:39:48.281Z,39.30
2023-03-16T23:42:17.895Z,44.63
2023-03-16T23:44:47.042Z,43.03
2023-03-16T23:47:16.263Z,44.03
2023-03-16T23:49:45.589Z,41.40
2023-03-16T23:52:15.511Z,43.03
2023-03-16T23:54:51.182Z,44.10
2023-03-16T23:57:21.335Z,43.10
2023-03-16T23:59:50.500Z,44.40
